createdAt,value
2023-04-07T00:00:43.323Z,12.72
2023-04-07T00:03:09.926Z,12.68
2023-04-07T00:05:36.447Z,12.64
2023-04-07T00:13:33.924Z,12.46
2023-04-07T00:16:00.355Z,12.42
2023-04-07T00:18:26.876Z,12.45
2023-04-07T00:20:53.293Z,12.48
2023-04-07T00:23:19.716Z,12.50
2023-04-07T00:25:46.143Z,12.52
2023-04-07T00:28:12.560Z,12.52
2023-04-07T00:30:38.950Z,12.48
2023-04-07T00:33:05.334Z,12.45
2023-04-07T00:35:36.212Z,12.40
2023-04-07T00:38:02.710Z,12.29
2023-04-07T00:40:29.060Z,12.15
2023-04-07T00:42:55.648Z,12.17
2023-04-07T00:45:22.099Z,12.13
2023-04-07T00:47:48.621Z,12.16
2023-04-07T00:50:15.060Z,12.19
2023-04-07T00:52:41.454Z,12.24
2023-04-07T00:55:07.954Z,12.27
2023-04-07T00:57:34.503Z,12.32
2023-04-07T01:00:01.008Z,12.33
2023-04-07T01:02:27.555Z,12.36
2023-04-07T01:04:54.295Z,12.38
2023-04-07T01:07:20.776Z,12.32
2023-04-07T01:09:47.148Z,12.30
2023-04-07T01:12:13.593Z,12.29
2023-04-07T01:14:39.947Z,12.28
2023-04-07T01:19:46.647Z,12.27
2023-04-07T01:24:53.436Z,12.22
2023-04-07T01:27:19.816Z,12.24
2023-04-07T01:29:46.197Z,12.21
2023-04-07T01:32:12.537Z,12.14
2023-04-07T01:34:38.953Z,12.07
2023-04-07T01:37:05.318Z,12.06
2023-04-07T01:39:31.753Z,12.02
2023-04-07T01:41:58.105Z,12.03
2023-04-07T01:44:24.450Z,12.10
2023-04-07T01:46:51.019Z,12.08
2023-04-07T01:49:17.521Z,12.09
2023-04-07T01:51:43.869Z,12.01
2023-04-07T01:54:10.228Z,12.00
2023-04-07T01:56:36.606Z,12.05
2023-04-07T01:59:03.014Z,11.95
2023-04-07T02:01:29.676Z,11.96
2023-04-07T02:09:36.829Z,11.91
2023-04-07T02:12:03.227Z,11.91
2023-04-07T02:14:29.697Z,11.87
2023-04-07T02:16:56.317Z,11.84
2023-04-07T02:19:22.988Z,11.80
2023-04-07T02:21:49.433Z,11.53
2023-04-07T02:24:15.911Z,11.65
2023-04-07T02:26:42.311Z,11.74
2023-04-07T02:29:08.732Z,11.86
2023-04-07T02:31:35.181Z,11.90
2023-04-07T02:34:01.604Z,11.88
2023-04-07T02:36:28.066Z,11.87
2023-04-07T02:38:54.496Z,11.84
2023-04-07T02:41:20.947Z,11.83
2023-04-07T02:43:47.414Z,11.91
2023-04-07T02:46:15.480Z,11.93
2023-04-07T02:48:42.905Z,11.93
2023-04-07T02:51:09.295Z,11.94
2023-04-07T02:53:35.641Z,11.91
2023-04-07T02:56:02.175Z,11.79
2023-04-07T02:58:28.538Z,11.80
2023-04-07T03:00:54.955Z,11.82
2023-04-07T03:03:21.627Z,11.86
2023-04-07T03:08:38.828Z,11.87
2023-04-07T03:11:05.309Z,11.84
2023-04-07T03:13:31.823Z,11.80
2023-04-07T03:15:58.274Z,11.78
2023-04-07T03:18:24.730Z,11.75
2023-04-07T03:20:51.158Z,11.81
2023-04-07T03:23:17.566Z,11.85
2023-04-07T03:25:43.960Z,11.82
2023-04-07T03:28:10.403Z,11.81
2023-04-07T03:30:36.844Z,11.38
2023-04-07T03:33:03.392Z,11.43
2023-04-07T03:35:29.899Z,11.61
2023-04-07T03:40:36.573Z,11.85
2023-04-07T03:43:03.035Z,11.90
2023-04-07T03:45:29.485Z,11.89
2023-04-07T03:47:56.006Z,11.89
2023-04-07T03:50:22.547Z,11.84
2023-04-07T03:52:49.045Z,11.84
2023-04-07T03:55:15.431Z,11.80
2023-04-07T03:57:41.821Z,11.52
2023-04-07T04:00:08.232Z,11.55
2023-04-07T04:02:34.815Z,11.71
2023-04-07T04:05:01.350Z,11.48
2023-04-07T04:07:27.853Z,11.48
2023-04-07T04:09:54.331Z,11.56
2023-04-07T04:12:20.773Z,11.59
2023-04-07T04:14:47.150Z,11.71
2023-04-07T04:17:13.553Z,11.75
2023-04-07T04:19:40.033Z,11.79
2023-04-07T04:22:06.441Z,11.79
2023-04-07T04:24:32.888Z,11.80
2023-04-07T04:26:59.304Z,11.81
2023-04-07T04:29:25.723Z,11.83
2023-04-07T04:31:52.133Z,11.80
2023-04-07T04:34:18.609Z,11.76
2023-04-07T04:36:45.070Z,11.75
2023-04-07T04:39:11.599Z,11.75
2023-04-07T04:41:38.386Z,11.81
2023-04-07T04:44:04.856Z,11.85
2023-04-07T04:46:31.389Z,11.81
2023-04-07T04:48:57.818Z,11.80
2023-04-07T04:51:24.308Z,11.81
2023-04-07T04:53:50.982Z,11.81
2023-04-07T04:56:17.570Z,11.82
2023-04-07T04:58:43.905Z,11.83
2023-04-07T05:06:41.645Z,11.89
2023-04-07T05:09:08.014Z,11.78
2023-04-07T05:11:38.292Z,11.66
2023-04-07T05:14:25.308Z,11.43
2023-04-07T05:16:51.724Z,11.17
2023-04-07T05:19:18.228Z,11.48
2023-04-07T05:21:44.660Z,11.55
2023-04-07T05:24:16.923Z,11.67
2023-04-07T05:26:44.437Z,11.25
2023-04-07T05:29:10.816Z,11.20
2023-04-07T05:31:37.273Z,11.29
2023-04-07T05:34:03.809Z,11.11
2023-04-07T05:36:30.237Z,10.52
2023-04-07T05:39:12.010Z,10.03
2023-04-07T05:41:38.415Z,9.81
2023-04-07T05:44:04.757Z,10.20
2023-04-07T05:46:31.075Z,10.40
2023-04-07T05:48:59.123Z,10.48
2023-04-07T05:51:25.605Z,10.44
2023-04-07T05:53:52.107Z,10.57
2023-04-07T05:56:18.670Z,10.58
2023-04-07T05:58:44.986Z,10.62
2023-04-07T06:01:11.362Z,10.56
2023-04-07T06:03:38.039Z,10.39
2023-04-07T06:06:04.507Z,10.39
2023-04-07T06:08:30.847Z,10.37
2023-04-07T06:10:57.194Z,10.38
2023-04-07T06:13:23.521Z,10.35
2023-04-07T06:15:49.874Z,10.31
2023-04-07T06:18:16.210Z,10.29
2023-04-07T06:20:42.536Z,10.25
2023-04-07T06:23:08.865Z,10.25
2023-04-07T06:25:35.193Z,10.27
2023-04-07T06:28:01.569Z,10.29
2023-04-07T06:30:27.941Z,10.28
2023-04-07T06:32:54.335Z,10.27
2023-04-07T06:35:20.674Z,10.30
2023-04-07T06:37:47.052Z,10.25
2023-04-07T06:40:13.376Z,10.23
2023-04-07T06:42:39.711Z,10.14
2023-04-07T06:45:06.042Z,10.23
2023-04-07T06:47:32.481Z,10.33
2023-04-07T06:49:58.842Z,10.43
2023-04-07T06:52:25.174Z,10.51
2023-04-07T06:54:51.511Z,10.46
2023-04-07T06:57:17.943Z,10.46
2023-04-07T06:59:44.341Z,10.43
2023-04-07T07:02:10.807Z,10.53
2023-04-07T07:04:37.525Z,10.55
2023-04-07T07:21:17.538Z,10.82
2023-04-07T07:23:43.992Z,10.84
2023-04-07T07:26:10.461Z,10.84
2023-04-07T07:28:36.896Z,10.90
2023-04-07T07:31:03.327Z,10.83
2023-04-07T07:33:29.783Z,10.61
2023-04-07T07:35:56.199Z,10.26
2023-04-07T07:38:22.640Z,10.36
2023-04-07T07:40:49.069Z,10.37
2023-04-07T07:43:15.530Z,10.28
2023-04-07T07:48:22.297Z,10.22
2023-04-07T07:50:51.569Z,10.27
2023-04-07T07:53:18.050Z,10.27
2023-04-07T07:55:44.463Z,10.23
2023-04-07T07:58:10.863Z,10.10
2023-04-07T08:00:37.218Z,9.94
2023-04-07T08:03:03.754Z,10.02
2023-04-07T08:05:30.194Z,10.07
2023-04-07T08:07:56.685Z,10.09
2023-04-07T08:10:23.239Z,10.08
2023-04-07T08:12:49.693Z,10.13
2023-04-07T08:15:16.166Z,10.19
2023-04-07T08:17:42.710Z,10.19
2023-04-07T08:20:09.178Z,10.30
2023-04-07T08:22:35.571Z,10.37
2023-04-07T08:25:02.008Z,10.42
2023-04-07T08:27:28.414Z,10.49
2023-04-07T08:29:54.938Z,10.48
2023-04-07T08:32:21.392Z,10.47
2023-04-07T08:34:47.846Z,10.49
2023-04-07T08:37:14.262Z,10.52
2023-04-07T08:39:40.735Z,10.49
2023-04-07T08:42:07.212Z,10.41
2023-04-07T08:44:33.682Z,10.47
2023-04-07T08:47:00.224Z,10.54
2023-04-07T08:49:26.688Z,10.58
2023-04-07T08:51:53.138Z,10.59
2023-04-07T08:54:19.595Z,10.67
2023-04-07T08:56:46.112Z,10.73
2023-04-07T08:59:12.583Z,10.74
2023-04-07T09:01:39.225Z,10.72
2023-04-07T09:04:05.812Z,10.74
2023-04-07T09:06:32.256Z,10.73
2023-04-07T09:08:58.740Z,10.75
2023-04-07T09:11:25.222Z,10.81
2023-04-07T09:13:51.780Z,10.84
2023-04-07T09:16:18.268Z,10.88
2023-04-07T09:18:44.724Z,10.95
2023-04-07T09:21:11.126Z,10.97
2023-04-07T09:23:37.580Z,10.93
2023-04-07T09:28:44.517Z,10.83
2023-04-07T09:31:11.023Z,10.93
2023-04-07T09:33:37.535Z,11.00
2023-04-07T09:36:04.073Z,11.04
2023-04-07T09:38:30.575Z,11.07
2023-04-07T09:40:57.483Z,11.06
2023-04-07T09:46:04.344Z,11.00
2023-04-07T09:48:30.807Z,10.97
2023-04-07T09:50:57.282Z,10.93
2023-04-07T09:53:23.701Z,10.93
2023-04-07T09:55:50.151Z,10.91
2023-04-07T09:58:16.621Z,10.71
2023-04-07T10:00:43.126Z,10.71
2023-04-07T10:03:09.682Z,10.85
2023-04-07T10:05:36.158Z,10.96
2023-04-07T10:08:02.635Z,11.07
2023-04-07T10:13:09.512Z,11.14
2023-04-07T10:15:36.020Z,10.99
2023-04-07T10:18:02.573Z,11.01
2023-04-07T10:20:29.175Z,10.90
2023-04-07T10:22:55.604Z,10.84
2023-04-07T10:25:22.040Z,10.72
2023-04-07T10:27:48.456Z,10.50
2023-04-07T10:30:14.857Z,10.54
2023-04-07T10:32:43.776Z,10.64
2023-04-07T10:35:10.281Z,10.74
2023-04-07T10:37:36.763Z,10.84
2023-04-07T10:40:03.272Z,10.99
2023-04-07T10:42:29.807Z,11.11
2023-04-07T10:44:56.245Z,11.15
2023-04-07T10:47:22.680Z,11.10
2023-04-07T10:49:49.197Z,11.06
2023-04-07T10:52:15.682Z,11.12
2023-04-07T10:54:42.454Z,11.17
2023-04-07T10:57:08.936Z,11.18
2023-04-07T10:59:35.426Z,11.18
2023-04-07T11:02:01.952Z,11.19
2023-04-07T11:04:28.613Z,11.17
2023-04-07T11:06:55.066Z,11.20
2023-04-07T11:09:21.478Z,11.16
2023-04-07T11:11:47.907Z,11.18
2023-04-07T11:14:16.649Z,11.19
2023-04-07T11:16:43.091Z,11.23
2023-04-07T11:19:11.495Z,11.30
2023-04-07T11:21:37.963Z,11.20
2023-04-07T11:24:04.476Z,11.33
2023-04-07T11:26:30.928Z,11.53
2023-04-07T11:28:57.351Z,11.68
2023-04-07T11:31:23.819Z,11.73
2023-04-07T11:33:50.505Z,11.75
2023-04-07T11:36:17.134Z,11.65
2023-04-07T11:38:44.860Z,11.87
2023-04-07T11:41:12.542Z,11.96
2023-04-07T11:43:38.938Z,12.06
2023-04-07T11:46:05.360Z,12.06
2023-04-07T11:48:31.803Z,11.86
2023-04-07T11:50:58.230Z,11.82
2023-04-07T11:53:24.657Z,12.01
2023-04-07T11:55:57.418Z,12.13
2023-04-07T11:58:23.983Z,12.32
2023-04-07T12:00:50.506Z,12.18
2023-04-07T12:03:17.177Z,12.13
2023-04-07T12:05:43.718Z,11.89
2023-04-07T12:08:10.199Z,11.73
2023-04-07T12:10:36.698Z,11.76
2023-04-07T12:13:03.138Z,11.60
2023-04-07T12:15:29.591Z,11.51
2023-04-07T12:17:56.111Z,11.62
2023-04-07T12:20:22.632Z,11.57
2023-04-07T12:22:49.094Z,11.70
2023-04-07T12:25:15.572Z,11.54
2023-04-07T12:27:44.768Z,11.43
2023-04-07T12:30:14.078Z,11.53
2023-04-07T12:32:40.584Z,11.62
2023-04-07T12:35:09.810Z,11.59
2023-04-07T12:37:36.227Z,11.71
2023-04-07T12:40:02.649Z,11.63
2023-04-07T12:42:29.097Z,11.46
2023-04-07T12:44:55.548Z,11.47
2023-04-07T12:47:24.372Z,11.50
2023-04-07T12:49:50.938Z,11.68
2023-04-07T12:52:17.486Z,11.56
2023-04-07T12:54:44.093Z,11.63
2023-04-07T12:57:10.527Z,11.63
2023-04-07T12:59:36.958Z,11.77
2023-04-07T13:02:03.678Z,11.61
2023-04-07T13:07:15.060Z,11.65
2023-04-07T13:09:41.571Z,11.58
2023-04-07T13:12:08.064Z,11.65
2023-04-07T13:14:34.672Z,11.58
2023-04-07T13:17:01.253Z,11.60
2023-04-07T13:19:27.861Z,11.81
2023-04-07T13:21:54.247Z,12.00
2023-04-07T13:24:20.631Z,12.02
2023-04-07T13:26:47.055Z,12.16
2023-04-07T13:29:13.568Z,12.17
2023-04-07T13:31:43.024Z,12.11
2023-04-07T13:34:09.568Z,12.34
2023-04-07T13:36:36.009Z,12.40
2023-04-07T13:39:02.469Z,12.41
2023-04-07T13:41:28.973Z,12.21
2023-04-07T13:43:55.442Z,12.33
2023-04-07T13:46:28.498Z,12.44
2023-04-07T13:48:55.764Z,12.47
2023-04-07T13:51:22.201Z,12.36
2023-04-07T13:53:51.215Z,12.36
2023-04-07T13:56:18.589Z,12.38
2023-04-07T13:58:48.026Z,12.44
2023-04-07T14:01:14.542Z,12.21
2023-04-07T14:03:41.248Z,12.32
2023-04-07T14:06:07.720Z,12.36
2023-04-07T14:08:34.137Z,12.42
2023-04-07T14:11:00.546Z,12.43
2023-04-07T14:13:27.000Z,12.48
2023-04-07T14:15:53.459Z,12.57
2023-04-07T14:18:22.771Z,12.46
2023-04-07T14:20:49.283Z,12.43
2023-04-07T14:23:20.755Z,12.56
2023-04-07T14:25:56.699Z,12.52
2023-04-07T14:28:23.118Z,12.56
2023-04-07T14:30:49.574Z,12.68
2023-04-07T14:33:16.092Z,12.64
2023-04-07T14:35:42.493Z,12.78
2023-04-07T14:38:08.911Z,12.95
2023-04-07T14:40:37.360Z,12.87
2023-04-07T14:43:07.368Z,12.83
2023-04-07T14:45:34.084Z,13.00
2023-04-07T14:48:02.831Z,13.18
2023-04-07T14:50:32.501Z,13.08
2023-04-07T14:52:59.047Z,13.21
2023-04-07T14:55:25.579Z,13.11
2023-04-07T14:57:52.035Z,12.94
2023-04-07T15:00:18.684Z,13.06
2023-04-07T15:02:45.327Z,13.30
2023-04-07T15:05:17.894Z,13.50
2023-04-07T15:07:44.364Z,13.48
2023-04-07T15:10:10.867Z,13.60
2023-04-07T15:12:37.257Z,13.63
2023-04-07T15:15:03.676Z,13.68
2023-04-07T15:17:42.398Z,13.59
2023-04-07T15:20:10.019Z,13.47
2023-04-07T15:22:36.441Z,13.49
2023-04-07T15:25:02.892Z,13.52
2023-04-07T15:27:29.385Z,13.46
2023-04-07T15:29:58.060Z,13.44
2023-04-07T15:32:24.560Z,13.42
2023-04-07T15:34:51.094Z,13.47
2023-04-07T15:37:17.488Z,13.53
2023-04-07T15:39:46.255Z,13.66
2023-04-07T15:42:12.786Z,13.72
2023-04-07T15:44:39.338Z,13.80
2023-04-07T15:47:05.878Z,13.87
2023-04-07T15:49:32.384Z,13.88
2023-04-07T15:51:58.815Z,13.98
2023-04-07T15:54:25.301Z,13.87
2023-04-07T15:56:51.708Z,13.88
2023-04-07T15:59:18.224Z,13.88
2023-04-07T16:01:44.709Z,13.89
2023-04-07T16:04:11.284Z,13.88
2023-04-07T16:06:37.790Z,13.88
2023-04-07T16:09:04.230Z,13.93
2023-04-07T16:11:30.602Z,14.02
2023-04-07T16:19:40.497Z,14.59
2023-04-07T16:22:07.096Z,14.89
2023-04-07T16:24:33.583Z,15.27
2023-04-07T16:27:01.153Z,17.68
2023-04-07T16:29:29.322Z,20.09
2023-04-07T16:31:55.790Z,21.23
2023-04-07T16:34:22.268Z,22.63
2023-04-07T16:36:48.770Z,23.21
2023-04-07T16:39:15.392Z,22.87
2023-04-07T16:41:41.883Z,23.16
2023-04-07T16:44:08.392Z,23.15
2023-04-07T16:46:34.870Z,23.58
2023-04-07T16:49:04.418Z,23.49
2023-04-07T16:51:33.845Z,22.25
2023-04-07T16:54:03.854Z,21.58
2023-04-07T16:56:30.369Z,19.27
2023-04-07T16:58:56.803Z,18.52
2023-04-07T17:01:23.315Z,17.50
2023-04-07T17:03:50.086Z,16.66
2023-04-07T17:06:16.756Z,15.90
2023-04-07T17:08:46.222Z,15.98
2023-04-07T17:11:12.913Z,15.49
2023-04-07T17:13:40.625Z,15.39
2023-04-07T17:18:51.185Z,14.65
2023-04-07T17:21:22.644Z,14.60
2023-04-07T17:23:49.367Z,14.52
2023-04-07T17:26:15.931Z,14.56
2023-04-07T17:28:42.407Z,14.35
2023-04-07T17:31:08.917Z,13.83
2023-04-07T17:33:35.338Z,13.13
2023-04-07T17:36:01.868Z,12.75
2023-04-07T17:38:28.391Z,12.45
2023-04-07T17:40:55.020Z,12.14
2023-04-07T17:43:21.640Z,12.23
2023-04-07T17:45:48.260Z,12.22
2023-04-07T17:48:14.721Z,12.21
2023-04-07T17:50:41.293Z,12.31
2023-04-07T17:53:07.728Z,12.16
2023-04-07T17:55:34.158Z,12.46
2023-04-07T17:58:03.067Z,12.56
2023-04-07T18:00:29.582Z,12.68
2023-04-07T18:03:05.313Z,12.39
2023-04-07T18:05:31.810Z,12.11
2023-04-07T18:07:58.408Z,12.02
2023-04-07T18:10:24.908Z,11.94
2023-04-07T18:12:51.352Z,12.03
2023-04-07T18:15:17.809Z,12.34
2023-04-07T18:17:44.398Z,12.54
2023-04-07T18:20:11.073Z,12.68
2023-04-07T18:22:37.536Z,12.76
2023-04-07T18:25:03.938Z,12.70
2023-04-07T18:27:30.448Z,12.84
2023-04-07T18:29:56.943Z,12.97
2023-04-07T18:32:23.365Z,13.03
2023-04-07T18:34:49.785Z,13.10
2023-04-07T18:37:16.230Z,13.15
2023-04-07T18:39:42.686Z,13.07
2023-04-07T18:42:09.228Z,13.08
2023-04-07T18:44:35.621Z,13.10
2023-04-07T18:47:06.529Z,13.09
2023-04-07T18:49:33.021Z,13.02
2023-04-07T18:51:59.450Z,12.96
2023-04-07T18:54:25.876Z,12.94
2023-04-07T18:56:52.291Z,12.89
2023-04-07T18:59:18.744Z,12.81
2023-04-07T19:01:45.214Z,12.72
2023-04-07T19:04:11.708Z,12.64
2023-04-07T19:06:38.223Z,12.52
2023-04-07T19:09:04.596Z,12.46
2023-04-07T19:11:30.999Z,12.36
2023-04-07T19:13:57.398Z,12.24
2023-04-07T19:16:23.824Z,12.20
2023-04-07T19:18:50.179Z,12.14
2023-04-07T19:21:16.553Z,12.12
2023-04-07T19:23:43.020Z,12.14
2023-04-07T19:26:09.439Z,12.06
2023-04-07T19:28:35.817Z,12.05
2023-04-07T19:31:02.224Z,12.00
2023-04-07T19:33:28.659Z,11.99
2023-04-07T19:35:55.108Z,11.99
2023-04-07T19:38:21.520Z,11.96
2023-04-07T19:40:47.983Z,11.91
2023-04-07T19:43:14.417Z,11.90
2023-04-07T19:45:40.928Z,11.83
2023-04-07T19:48:07.469Z,11.80
2023-04-07T19:50:35.060Z,11.90
2023-04-07T19:53:01.474Z,11.97
2023-04-07T19:55:27.917Z,11.95
2023-04-07T19:57:54.336Z,11.92
2023-04-07T20:00:20.773Z,11.85
2023-04-07T20:02:47.356Z,11.84
2023-04-07T20:05:13.855Z,11.84
2023-04-07T20:07:40.274Z,11.81
2023-04-07T20:10:06.729Z,11.81
2023-04-07T20:12:33.144Z,11.78
2023-04-07T20:14:59.533Z,11.77
2023-04-07T20:17:25.988Z,11.77
2023-04-07T20:20:00.042Z,11.72
2023-04-07T20:22:26.422Z,11.71
2023-04-07T20:24:52.833Z,11.71
2023-04-07T20:27:31.214Z,11.64
2023-04-07T20:29:57.640Z,11.70
2023-04-07T20:32:24.157Z,11.69
2023-04-07T20:34:50.616Z,11.73
2023-04-07T20:37:17.065Z,11.72
2023-04-07T20:39:43.531Z,11.70
2023-04-07T20:42:12.741Z,11.69
2023-04-07T20:44:39.131Z,11.72
2023-04-07T20:47:05.603Z,11.72
2023-04-07T20:49:40.892Z,11.75
2023-04-07T20:52:08.019Z,11.74
2023-04-07T20:54:36.028Z,11.75
2023-04-07T20:57:02.401Z,11.73
2023-04-07T20:59:28.739Z,11.78
2023-04-07T21:01:55.163Z,11.82
2023-04-07T21:04:21.763Z,11.76
2023-04-07T21:06:48.277Z,11.69
2023-04-07T21:09:14.620Z,11.70
2023-04-07T21:14:31.271Z,11.50
2023-04-07T21:16:57.705Z,11.45
2023-04-07T21:19:24.212Z,11.38
2023-04-07T21:21:52.846Z,11.37
2023-04-07T21:24:19.343Z,11.32
2023-04-07T21:26:45.793Z,11.31
2023-04-07T21:29:12.191Z,11.20
2023-04-07T21:31:38.565Z,11.13
2023-04-07T21:34:05.011Z,11.02
2023-04-07T21:36:31.467Z,11.05
2023-04-07T21:38:57.920Z,11.09
2023-04-07T21:41:24.352Z,11.14
2023-04-07T21:43:50.816Z,11.18
2023-04-07T21:46:17.300Z,10.98
2023-04-07T21:48:43.812Z,10.88
2023-04-07T21:51:10.307Z,10.89
2023-04-07T21:53:36.791Z,10.88
2023-04-07T21:56:03.233Z,10.84
2023-04-07T21:58:29.728Z,10.88
2023-04-07T22:03:36.698Z,10.89
2023-04-07T22:06:03.296Z,10.93
2023-04-07T22:08:29.781Z,10.98
2023-04-07T22:10:56.236Z,11.05
2023-04-07T22:13:22.647Z,11.08
2023-04-07T22:15:49.119Z,11.09
2023-04-07T22:18:15.567Z,11.09
2023-04-07T22:20:42.049Z,11.07
2023-04-07T22:23:08.386Z,11.08
2023-04-07T22:25:34.854Z,11.09
2023-04-07T22:28:01.337Z,11.01
2023-04-07T22:30:27.811Z,10.78
2023-04-07T22:32:54.289Z,10.80
2023-04-07T22:35:20.838Z,10.78
2023-04-07T22:37:47.364Z,10.76
2023-04-07T22:40:13.812Z,10.79
2023-04-07T22:42:40.266Z,10.78
2023-04-07T22:45:06.661Z,10.77
2023-04-07T22:47:33.121Z,10.79
2023-04-07T22:49:59.596Z,10.78
2023-04-07T22:52:26.031Z,10.78
2023-04-07T22:54:52.516Z,10.76
2023-04-07T22:57:28.981Z,10.77
2023-04-07T23:00:05.555Z,10.81
2023-04-07T23:02:32.155Z,10.80
2023-04-07T23:04:58.676Z,10.77
2023-04-07T23:07:25.162Z,10.74
2023-04-07T23:09:52.749Z,10.72
2023-04-07T23:12:19.130Z,10.67
2023-04-07T23:14:45.534Z,10.64
2023-04-07T23:17:11.988Z,10.58
2023-04-07T23:19:40.965Z,10.48
2023-04-07T23:22:07.390Z,10.50
2023-04-07T23:24:33.830Z,10.50
2023-04-07T23:29:40.681Z,10.51
2023-04-07T23:32:07.279Z,10.53
2023-04-07T23:34:39.102Z,10.54
2023-04-07T23:37:05.501Z,10.57
2023-04-07T23:39:31.850Z,10.57
2023-04-07T23:41:58.190Z,10.59
2023-04-07T23:44:24.603Z,10.56
2023-04-07T23:46:51.040Z,10.52
2023-04-07T23:49:17.504Z,10.49
2023-04-07T23:51:43.944Z,10.50
2023-04-07T23:54:10.388Z,10.53
2023-04-07T23:56:39.217Z,10.48
2023-04-07T23:59:05.577Z,10.49
